createdAt,value
2023-04-26T00:03:01.373Z,97512.66
2023-04-26T00:06:09.076Z,97509.66
2023-04-26T00:09:11.985Z,97517.19
2023-04-26T00:12:14.626Z,97520.22
2023-04-26T00:15:17.520Z,97522.28
2023-04-26T00:18:20.396Z,97533.00
2023-04-26T00:21:23.030Z,97525.31
2023-04-26T00:24:26.231Z,97532.72
2023-04-26T00:27:28.962Z,97534.38
2023-04-26T00:30:32.546Z,97541.53
2023-04-26T00:33:35.419Z,97538.50
2023-04-26T00:36:38.497Z,97532.75
2023-04-26T00:39:41.313Z,97535.38
2023-04-26T00:42:44.539Z,97544.81
2023-04-26T00:45:47.343Z,97534.66
2023-04-26T00:48:50.607Z,97545.09
2023-04-26T00:51:55.085Z,97549.50
2023-04-26T00:55:00.239Z,97544.81
2023-04-26T00:58:03.567Z,97542.66
2023-04-26T01:01:07.856Z,97548.94
2023-04-26T01:04:15.674Z,97539.88
2023-04-26T01:07:19.278Z,97544.53
2023-04-26T01:10:22.212Z,97548.25
2023-04-26T01:13:27.076Z,97531.91
2023-04-26T01:16:31.314Z,97538.47
2023-04-26T01:19:34.123Z,97548.63
2023-04-26T01:22:37.316Z,97548.66
2023-04-26T01:25:40.545Z,97552.47
2023-04-26T01:28:43.771Z,97558.06
2023-04-26T01:31:47.317Z,97563.53
2023-04-26T01:34:50.045Z,97559.97
2023-04-26T01:37:54.735Z,97566.63
2023-04-26T01:40:57.674Z,97561.69
2023-04-26T01:44:07.790Z,97567.25
2023-04-26T01:47:10.708Z,97568.19
2023-04-26T01:50:13.499Z,97571.00
2023-04-26T01:53:16.136Z,97577.13
2023-04-26T01:56:19.883Z,97574.38
2023-04-26T01:59:23.019Z,97571.06
2023-04-26T02:02:25.967Z,97571.72
2023-04-26T02:05:28.719Z,97570.44
2023-04-26T02:08:32.401Z,97576.41
2023-04-26T02:11:35.529Z,97580.22
2023-04-26T02:14:38.251Z,97583.75
2023-04-26T02:17:41.364Z,97585.34
2023-04-26T02:20:44.915Z,97579.19
2023-04-26T02:23:47.808Z,97581.72
2023-04-26T02:26:53.200Z,97578.44
2023-04-26T02:29:56.013Z,97575.38
2023-04-26T02:32:59.288Z,97577.38
2023-04-26T02:36:06.555Z,97575.63
2023-04-26T02:39:10.292Z,97576.91
2023-04-26T02:42:13.357Z,97580.75
2023-04-26T02:45:17.335Z,97579.84
2023-04-26T02:48:20.293Z,97571.97
2023-04-26T02:51:23.304Z,97579.34
2023-04-26T02:54:26.264Z,97575.22
2023-04-26T02:57:29.125Z,97586.09
2023-04-26T03:00:31.801Z,97582.81
2023-04-26T03:03:34.754Z,97585.75
2023-04-26T03:06:37.640Z,97579.53
2023-04-26T03:09:40.317Z,97581.19
2023-04-26T03:12:42.920Z,97583.56
2023-04-26T03:15:46.689Z,97578.94
2023-04-26T03:18:49.556Z,97582.38
2023-04-26T03:21:52.349Z,97590.53
2023-04-26T03:24:55.377Z,97588.06
2023-04-26T03:27:58.365Z,97593.50
2023-04-26T03:31:02.076Z,97593.03
2023-04-26T03:34:06.700Z,97602.22
2023-04-26T03:37:09.402Z,97601.31
2023-04-26T03:40:13.732Z,97606.84
2023-04-26T03:43:16.443Z,97608.38
2023-04-26T03:46:20.441Z,97617.38
2023-04-26T03:49:24.155Z,97616.91
2023-04-26T03:52:28.451Z,97625.41
2023-04-26T03:55:31.168Z,97618.91
2023-04-26T03:58:33.945Z,97628.47
2023-04-26T04:01:37.054Z,97626.34
2023-04-26T04:04:40.223Z,97635.09
2023-04-26T04:07:43.163Z,97638.13
2023-04-26T04:10:46.524Z,97640.75
2023-04-26T04:13:52.122Z,97647.81
2023-04-26T04:16:54.913Z,97648.28
2023-04-26T04:19:57.611Z,97645.94
2023-04-26T04:23:00.349Z,97651.72
2023-04-26T04:26:03.504Z,97646.13
2023-04-26T04:29:09.264Z,97652.22
2023-04-26T04:32:15.403Z,97656.97
2023-04-26T04:35:19.152Z,97663.28
2023-04-26T04:38:22.286Z,97664.84
2023-04-26T04:41:25.660Z,97680.06
2023-04-26T04:44:28.436Z,97671.19
2023-04-26T04:47:34.356Z,97678.75
2023-04-26T04:50:38.984Z,97679.53
2023-04-26T04:53:41.784Z,97686.59
2023-04-26T04:56:45.322Z,97679.41
2023-04-26T04:59:49.969Z,97686.94
2023-04-26T05:02:53.700Z,97684.38
2023-04-26T05:05:57.044Z,97694.28
2023-04-26T05:09:01.737Z,97689.97
2023-04-26T05:12:05.154Z,97684.78
2023-04-26T05:15:08.746Z,97691.16
2023-04-26T05:18:11.490Z,97701.06
2023-04-26T05:21:14.396Z,97701.59
2023-04-26T05:24:17.328Z,97698.41
2023-04-26T05:27:20.378Z,97709.13
2023-04-26T05:30:43.730Z,97715.69
2023-04-26T05:33:56.352Z,97702.81
2023-04-26T05:37:08.411Z,97710.50
2023-04-26T05:40:12.746Z,97705.97
2023-04-26T05:43:16.750Z,97713.81
2023-04-26T05:46:20.186Z,97720.69
2023-04-26T05:49:22.860Z,97717.53
2023-04-26T05:52:25.651Z,97713.78
2023-04-26T05:55:28.497Z,97723.69
2023-04-26T05:58:31.411Z,97728.81
2023-04-26T06:01:34.638Z,97735.53
2023-04-26T06:04:38.693Z,97734.69
2023-04-26T06:07:48.254Z,97732.50
2023-04-26T06:10:51.162Z,97732.50
2023-04-26T06:13:54.328Z,97733.00
2023-04-26T06:16:58.081Z,97737.41
2023-04-26T06:20:01.846Z,97728.03
2023-04-26T06:23:05.187Z,97741.09
2023-04-26T06:26:07.902Z,97736.34
2023-04-26T06:29:10.938Z,97736.09
2023-04-26T06:32:13.779Z,97736.50
2023-04-26T06:35:17.096Z,97732.50
2023-04-26T06:38:19.931Z,97731.31
2023-04-26T06:41:22.824Z,97734.13
2023-04-26T06:44:25.650Z,97744.41
2023-04-26T06:47:38.038Z,97745.97
2023-04-26T06:50:41.043Z,97749.94
2023-04-26T06:53:43.830Z,97751.38
2023-04-26T06:56:47.005Z,97754.16
2023-04-26T06:59:49.834Z,97754.66
2023-04-26T07:02:53.810Z,97760.34
2023-04-26T07:05:57.172Z,97756.03
2023-04-26T07:09:01.583Z,97762.78
2023-04-26T07:12:04.857Z,97760.91
2023-04-26T07:15:08.678Z,97762.81
2023-04-26T07:18:11.662Z,97758.69
2023-04-26T07:21:15.224Z,97780.81
2023-04-26T07:24:18.257Z,97767.38
2023-04-26T07:27:21.345Z,97754.06
2023-04-26T07:30:24.305Z,97760.28
2023-04-26T07:33:27.349Z,97773.66
2023-04-26T07:36:30.283Z,97759.34
2023-04-26T07:39:33.132Z,97764.22
2023-04-26T07:42:36.604Z,97780.97
2023-04-26T07:45:39.590Z,97774.28
2023-04-26T07:48:42.462Z,97772.81
2023-04-26T07:51:46.103Z,97771.13
2023-04-26T07:54:48.862Z,97772.31
2023-04-26T07:57:51.583Z,97774.97
2023-04-26T08:00:55.491Z,97768.97
2023-04-26T08:03:59.007Z,97769.31
2023-04-26T08:07:02.526Z,97765.97
2023-04-26T08:10:05.575Z,97774.22
2023-04-26T08:13:08.366Z,97769.72
2023-04-26T08:16:11.372Z,97767.66
2023-04-26T08:19:14.180Z,97772.63
2023-04-26T08:22:17.136Z,97776.88
2023-04-26T08:25:19.918Z,97778.56
2023-04-26T08:28:22.701Z,97768.41
2023-04-26T08:31:25.610Z,97772.91
2023-04-26T08:34:29.740Z,97781.56
2023-04-26T08:37:32.726Z,97773.06
2023-04-26T08:40:36.870Z,97783.19
2023-04-26T08:43:40.052Z,97781.31
2023-04-26T08:47:06.863Z,97792.00
2023-04-26T08:50:15.353Z,97790.84
2023-04-26T08:53:18.272Z,97795.03
2023-04-26T08:56:23.779Z,97801.03
2023-04-26T08:59:27.132Z,97797.31
2023-04-26T09:02:30.066Z,97784.22
2023-04-26T09:05:34.769Z,97799.50
2023-04-26T09:08:39.229Z,97801.25
2023-04-26T09:12:00.073Z,97808.59
2023-04-26T09:15:04.809Z,97800.84
2023-04-26T09:18:47.190Z,97803.81
2023-04-26T09:21:50.169Z,97794.63
2023-04-26T09:24:52.983Z,97804.28
2023-04-26T09:27:56.178Z,97789.75
2023-04-26T09:30:58.879Z,97791.31
2023-04-26T09:34:01.811Z,97806.63
2023-04-26T09:37:07.382Z,97807.53
2023-04-26T09:40:19.934Z,97801.63
2023-04-26T09:43:23.183Z,97792.94
2023-04-26T09:46:26.251Z,97800.19
2023-04-26T09:49:33.422Z,97796.66
2023-04-26T09:52:45.153Z,97801.91
2023-04-26T09:56:47.953Z,97792.63
2023-04-26T10:00:18.649Z,97794.94
2023-04-26T10:03:23.092Z,97793.31
2023-04-26T10:06:26.300Z,97803.28
2023-04-26T10:09:29.116Z,97795.31
2023-04-26T10:12:34.591Z,97787.28
2023-04-26T10:15:37.672Z,97792.81
2023-04-26T10:18:40.894Z,97795.53
2023-04-26T10:21:44.572Z,97801.44
2023-04-26T10:24:50.204Z,97788.75
2023-04-26T10:27:53.549Z,97779.00
2023-04-26T10:30:57.804Z,97782.50
2023-04-26T10:34:21.446Z,97776.09
2023-04-26T10:37:24.368Z,97779.41
2023-04-26T10:40:32.762Z,97779.84
2023-04-26T10:43:35.734Z,97775.22
2023-04-26T10:46:40.165Z,97780.09
2023-04-26T10:49:49.894Z,97788.63
2023-04-26T10:53:04.506Z,97777.06
2023-04-26T10:56:07.376Z,97793.03
2023-04-26T11:02:52.472Z,97787.25
2023-04-26T11:05:56.304Z,97798.59
2023-04-26T11:09:00.630Z,97806.72
2023-04-26T11:12:13.877Z,97802.44
2023-04-26T11:15:16.772Z,97792.41
2023-04-26T11:18:21.350Z,97788.44
2023-04-26T11:21:24.076Z,97784.50
2023-04-26T11:24:31.289Z,97784.19
2023-04-26T11:27:34.241Z,97783.69
2023-04-26T11:30:37.189Z,97792.78
2023-04-26T11:33:41.901Z,97789.50
2023-04-26T11:36:45.355Z,97793.00
2023-04-26T11:39:48.026Z,97797.22
2023-04-26T11:42:50.976Z,97786.97
2023-04-26T11:45:59.416Z,97780.94
2023-04-26T11:49:02.964Z,97790.00
2023-04-26T11:52:06.963Z,97809.38
2023-04-26T11:55:10.903Z,97807.88
2023-04-26T11:58:15.283Z,97808.13
2023-04-26T12:01:26.562Z,97806.38
2023-04-26T12:04:31.168Z,97801.94
2023-04-26T12:07:38.158Z,97828.50
2023-04-26T12:10:40.835Z,97821.22
2023-04-26T12:13:45.355Z,97816.53
2023-04-26T12:16:48.522Z,97828.63
2023-04-26T12:19:51.649Z,97826.19
2023-04-26T12:23:08.416Z,97806.88
2023-04-26T12:26:12.577Z,97802.03
2023-04-26T12:29:16.648Z,97801.47
2023-04-26T12:32:21.309Z,97810.78
2023-04-26T12:35:25.713Z,97820.19
2023-04-26T12:38:28.510Z,97832.25
2023-04-26T12:41:31.478Z,97825.13
2023-04-26T12:44:34.257Z,97826.16
2023-04-26T12:47:37.277Z,97816.25
2023-04-26T12:50:40.275Z,97815.25
2023-04-26T12:53:43.010Z,97815.44
2023-04-26T12:56:46.367Z,97822.34
2023-04-26T12:59:49.178Z,97830.31
2023-04-26T13:02:52.301Z,97840.03
2023-04-26T13:05:55.500Z,97826.63
2023-04-26T13:08:58.328Z,97832.63
2023-04-26T13:12:01.978Z,97826.53
2023-04-26T13:15:08.472Z,97833.34
2023-04-26T13:18:11.669Z,97834.63
2023-04-26T13:21:14.704Z,97823.75
2023-04-26T13:24:17.464Z,97821.91
2023-04-26T13:27:20.496Z,97835.94
2023-04-26T13:30:23.377Z,97849.56
2023-04-26T13:33:26.188Z,97844.28
2023-04-26T13:36:29.007Z,97852.63
2023-04-26T13:39:31.824Z,97849.13
2023-04-26T13:42:35.427Z,97855.09
2023-04-26T13:45:38.906Z,97854.88
2023-04-26T13:48:42.056Z,97848.00
2023-04-26T13:51:45.078Z,97842.25
2023-04-26T13:54:47.846Z,97836.25
2023-04-26T13:57:50.726Z,97847.53
2023-04-26T14:00:53.462Z,97838.13
2023-04-26T14:03:56.597Z,97838.91
2023-04-26T14:06:59.634Z,97835.16
2023-04-26T14:10:03.411Z,97836.72
2023-04-26T14:13:06.365Z,97838.63
2023-04-26T14:16:09.273Z,97842.13
2023-04-26T14:19:12.878Z,97849.84
2023-04-26T14:22:18.010Z,97862.72
2023-04-26T14:25:20.984Z,97854.84
2023-04-26T14:28:23.852Z,97862.91
2023-04-26T14:31:28.494Z,97867.84
2023-04-26T14:34:31.548Z,97863.56
2023-04-26T14:37:37.766Z,97848.53
2023-04-26T14:40:41.180Z,97845.13
2023-04-26T14:43:46.156Z,97854.47
2023-04-26T14:46:49.189Z,97849.63
2023-04-26T14:49:54.450Z,97851.66
2023-04-26T14:52:57.677Z,97854.88
2023-04-26T14:56:00.927Z,97857.09
2023-04-26T14:59:04.237Z,97846.34
2023-04-26T15:02:07.695Z,97853.00
2023-04-26T15:05:11.651Z,97847.19
2023-04-26T15:08:15.171Z,97859.81
2023-04-26T15:11:18.148Z,97868.75
2023-04-26T15:14:21.231Z,97867.47
2023-04-26T15:17:24.014Z,97883.28
2023-04-26T15:20:27.183Z,97871.38
2023-04-26T15:23:30.003Z,97869.41
2023-04-26T15:26:33.300Z,97888.78
2023-04-26T15:29:36.505Z,97870.50
2023-04-26T15:32:40.006Z,97877.13
2023-04-26T15:35:43.256Z,97879.63
2023-04-26T15:38:48.014Z,97892.41
2023-04-26T15:41:51.084Z,97881.84
2023-04-26T15:44:53.975Z,97874.09
2023-04-26T15:47:57.482Z,97880.75
2023-04-26T15:51:00.401Z,97883.28
2023-04-26T15:54:03.312Z,97881.34
2023-04-26T15:57:06.106Z,97882.03
2023-04-26T16:00:10.117Z,97885.69
2023-04-26T16:03:13.424Z,97887.22
2023-04-26T16:06:17.158Z,97880.28
2023-04-26T16:12:28.558Z,97877.25
2023-04-26T16:15:32.329Z,97880.00
2023-04-26T16:18:35.858Z,97879.03
2023-04-26T16:21:40.569Z,97882.22
2023-04-26T16:24:43.711Z,97891.69
2023-04-26T16:27:46.773Z,97885.47
2023-04-26T16:30:49.856Z,97885.25
2023-04-26T16:33:53.226Z,97888.50
2023-04-26T16:36:56.199Z,97902.06
2023-04-26T16:39:59.471Z,97903.22
2023-04-26T16:43:02.509Z,97900.53
2023-04-26T16:46:07.726Z,97897.94
2023-04-26T16:49:11.642Z,97902.22
2023-04-26T16:52:14.528Z,97896.13
2023-04-26T16:55:17.619Z,97904.88
2023-04-26T16:58:21.422Z,97904.81
2023-04-26T17:01:30.225Z,97914.88
2023-04-26T17:04:35.806Z,97913.78
2023-04-26T17:07:38.879Z,97923.25
2023-04-26T17:10:41.933Z,97910.72
2023-04-26T17:13:45.098Z,97912.25
2023-04-26T17:16:48.159Z,97929.47
2023-04-26T17:19:51.309Z,97929.47
2023-04-26T17:22:54.146Z,97932.38
2023-04-26T17:25:57.116Z,97937.50
2023-04-26T17:28:59.983Z,97937.63
2023-04-26T17:32:03.117Z,97946.44
2023-04-26T17:35:06.957Z,97937.09
2023-04-26T17:38:09.961Z,97951.28
2023-04-26T17:41:14.001Z,97947.13
2023-04-26T17:44:16.958Z,97959.09
2023-04-26T17:47:19.947Z,97962.53
2023-04-26T17:50:24.152Z,97973.38
2023-04-26T17:53:27.730Z,97969.81
2023-04-26T17:56:30.957Z,97975.00
2023-04-26T17:59:33.973Z,97973.06
2023-04-26T18:02:37.796Z,97981.78
2023-04-26T18:05:41.098Z,97975.41
2023-04-26T18:08:44.008Z,97983.81
2023-04-26T18:11:48.477Z,97991.22
2023-04-26T18:14:52.001Z,97992.34
2023-04-26T18:17:57.679Z,97986.44
2023-04-26T18:21:00.525Z,97990.84
2023-04-26T18:24:03.666Z,97996.47
2023-04-26T18:27:07.004Z,97998.69
2023-04-26T18:30:10.656Z,98005.97
2023-04-26T18:33:16.064Z,98011.66
2023-04-26T18:36:18.969Z,98017.00
2023-04-26T18:39:22.203Z,98015.47
2023-04-26T18:42:25.436Z,98020.59
2023-04-26T18:45:28.367Z,98024.16
2023-04-26T18:48:31.585Z,98028.50
2023-04-26T18:51:34.722Z,98035.16
2023-04-26T18:54:39.511Z,98037.50
2023-04-26T18:57:42.383Z,98040.09
2023-04-26T19:00:45.541Z,98046.22
2023-04-26T19:03:49.206Z,98050.28
2023-04-26T19:06:52.429Z,98051.56
2023-04-26T19:10:01.239Z,98048.38
2023-04-26T19:13:04.388Z,98051.94
2023-04-26T19:16:08.351Z,98044.75
2023-04-26T19:19:11.644Z,98053.44
2023-04-26T19:22:14.712Z,98063.16
2023-04-26T19:25:20.933Z,98065.03
2023-04-26T19:28:29.457Z,98060.41
2023-04-26T19:31:33.575Z,98057.28
2023-04-26T19:34:39.269Z,98061.72
2023-04-26T19:37:42.113Z,98056.56
2023-04-26T19:40:45.172Z,98068.69
2023-04-26T19:43:48.101Z,98073.00
2023-04-26T19:46:51.278Z,98067.09
2023-04-26T19:49:56.104Z,98068.31
2023-04-26T19:52:58.920Z,98073.28
2023-04-26T19:56:02.005Z,98073.31
2023-04-26T19:59:05.264Z,98077.41
2023-04-26T20:02:08.404Z,98078.03
2023-04-26T20:05:11.782Z,98071.53
2023-04-26T20:08:15.026Z,98078.03
2023-04-26T20:11:19.140Z,98076.13
2023-04-26T20:14:22.027Z,98079.44
2023-04-26T20:17:25.153Z,98069.72
2023-04-26T20:20:28.380Z,98076.44
2023-04-26T20:23:32.036Z,98073.81
2023-04-26T20:26:34.962Z,98073.91
2023-04-26T20:29:38.018Z,98077.91
2023-04-26T20:32:40.977Z,98080.44
2023-04-26T20:35:44.294Z,98073.22
2023-04-26T20:38:47.468Z,98081.78
2023-04-26T20:41:50.452Z,98084.00
2023-04-26T20:44:53.351Z,98080.78
2023-04-26T20:47:56.390Z,98086.69
2023-04-26T20:51:01.234Z,98079.69
2023-04-26T20:54:04.270Z,98088.63
2023-04-26T20:57:07.175Z,98088.47
2023-04-26T21:00:10.939Z,98096.50
2023-04-26T21:03:13.789Z,98094.63
2023-04-26T21:06:16.843Z,98097.84
2023-04-26T21:09:19.637Z,98098.06
2023-04-26T21:12:22.508Z,98099.47
2023-04-26T21:15:25.792Z,98101.38
2023-04-26T21:18:28.810Z,98096.19
2023-04-26T21:21:33.031Z,98105.13
2023-04-26T21:24:37.132Z,98108.84
2023-04-26T21:27:39.954Z,98113.13
2023-04-26T21:30:42.755Z,98114.66
2023-04-26T21:33:45.694Z,98113.13
2023-04-26T21:36:48.484Z,98110.72
2023-04-26T21:39:51.200Z,98109.28
2023-04-26T21:43:04.505Z,98112.56
2023-04-26T21:46:08.564Z,98117.56
2023-04-26T21:49:11.696Z,98113.53
2023-04-26T21:52:14.728Z,98121.94
2023-04-26T21:55:17.539Z,98118.72
2023-04-26T21:58:21.487Z,98124.72
2023-04-26T22:01:24.465Z,98128.56
2023-04-26T22:04:27.494Z,98126.09
2023-04-26T22:07:30.363Z,98132.19
2023-04-26T22:10:33.232Z,98144.03
2023-04-26T22:13:36.298Z,98143.50
2023-04-26T22:16:39.050Z,98141.94
2023-04-26T22:19:41.800Z,98141.53
2023-04-26T22:22:44.663Z,98136.97
2023-04-26T22:25:47.340Z,98136.69
2023-04-26T22:28:50.131Z,98137.41
2023-04-26T22:31:53.005Z,98148.09
2023-04-26T22:34:55.928Z,98155.69
2023-04-26T22:37:58.750Z,98155.56
2023-04-26T22:41:01.739Z,98159.94
2023-04-26T22:44:05.352Z,98157.28
2023-04-26T22:47:08.065Z,98162.66
2023-04-26T22:50:11.936Z,98162.25
2023-04-26T22:53:14.720Z,98166.81
2023-04-26T22:56:19.147Z,98167.53
2023-04-26T22:59:21.995Z,98164.72
2023-04-26T23:02:24.969Z,98164.22
2023-04-26T23:05:27.771Z,98164.09
2023-04-26T23:08:30.636Z,98166.59
2023-04-26T23:11:33.643Z,98166.19
2023-04-26T23:14:36.639Z,98178.81
2023-04-26T23:17:42.025Z,98179.56
2023-04-26T23:20:44.959Z,98177.69
2023-04-26T23:23:47.634Z,98180.06
2023-04-26T23:26:50.484Z,98184.75
2023-04-26T23:29:53.182Z,98181.53
2023-04-26T23:32:56.089Z,98182.34
2023-04-26T23:35:59.032Z,98182.16
2023-04-26T23:39:01.683Z,98182.41
2023-04-26T23:42:04.648Z,98187.72
2023-04-26T23:45:08.195Z,98190.91
2023-04-26T23:48:11.105Z,98186.94
2023-04-26T23:51:13.860Z,98189.09
2023-04-26T23:54:16.827Z,98191.66
2023-04-26T23:57:19.492Z,98187.69
